createdAt,value
2023-05-16T00:00:34.206Z,8.20
2023-05-16T00:01:34.259Z,8.20
2023-05-16T00:02:34.365Z,8.70
2023-05-16T00:03:34.276Z,8.50
2023-05-16T00:04:34.276Z,8.60
2023-05-16T00:05:34.216Z,8.80
2023-05-16T00:06:34.140Z,8.90
2023-05-16T00:07:34.151Z,8.70
2023-05-16T00:08:34.120Z,8.50
2023-05-16T00:09:34.125Z,9.30
2023-05-16T00:10:34.128Z,9.00
2023-05-16T00:11:34.135Z,8.70
2023-05-16T00:12:34.085Z,10.80
2023-05-16T00:13:34.094Z,8.90
2023-05-16T00:14:34.066Z,9.40
2023-05-16T00:15:34.077Z,9.10
2023-05-16T00:16:34.055Z,9.20
2023-05-16T00:17:34.125Z,9.30
2023-05-16T00:18:34.051Z,10.30
2023-05-16T00:19:34.024Z,9.60
2023-05-16T00:20:33.992Z,10.20
2023-05-16T00:21:34.013Z,10.30
2023-05-16T00:22:33.996Z,11.20
2023-05-16T00:23:34.002Z,10.90
2023-05-16T00:24:33.946Z,10.90
2023-05-16T00:25:33.959Z,11.50
2023-05-16T00:26:33.959Z,11.10
2023-05-16T00:27:33.962Z,10.70
2023-05-16T00:28:33.913Z,11.30
2023-05-16T00:29:33.928Z,11.50
2023-05-16T00:30:33.906Z,11.80
2023-05-16T00:31:33.930Z,13.10
2023-05-16T00:32:33.940Z,12.20
2023-05-16T00:33:33.866Z,13.10
2023-05-16T00:34:33.950Z,13.50
2023-05-16T00:35:33.851Z,13.10
2023-05-16T00:36:33.847Z,13.00
2023-05-16T00:37:33.840Z,15.20
2023-05-16T00:38:33.827Z,13.50
2023-05-16T00:39:33.787Z,13.40
2023-05-16T00:40:33.819Z,14.60
2023-05-16T00:41:33.821Z,15.40
2023-05-16T00:42:33.796Z,15.60
2023-05-16T00:43:33.793Z,17.10
2023-05-16T00:44:33.771Z,14.90
2023-05-16T00:45:33.742Z,16.30
2023-05-16T00:46:33.771Z,16.20
2023-05-16T00:47:33.795Z,18.40
2023-05-16T00:48:33.758Z,16.00
2023-05-16T00:49:33.734Z,22.10
2023-05-16T00:50:33.749Z,23.40
2023-05-16T00:51:33.689Z,22.50
2023-05-16T00:52:33.744Z,23.80
2023-05-16T00:53:33.738Z,22.10
2023-05-16T00:54:33.705Z,24.90
2023-05-16T00:55:33.621Z,26.60
2023-05-16T00:56:33.646Z,21.70
2023-05-16T00:57:33.605Z,27.00
2023-05-16T00:58:33.618Z,27.50
2023-05-16T00:59:33.604Z,31.50
2023-05-16T01:00:33.627Z,28.80
2023-05-16T01:01:33.632Z,27.00
2023-05-16T01:02:33.648Z,31.20
2023-05-16T01:03:33.624Z,36.20
2023-05-16T01:04:33.568Z,36.30
2023-05-16T01:05:33.567Z,31.60
2023-05-16T01:06:33.543Z,33.90
2023-05-16T01:07:33.557Z,33.60
2023-05-16T01:08:33.511Z,36.10
2023-05-16T01:09:33.488Z,33.30
2023-05-16T01:10:33.499Z,36.90
2023-05-16T01:11:33.476Z,35.50
2023-05-16T01:12:33.460Z,29.60
2023-05-16T01:13:33.429Z,35.40
2023-05-16T01:14:33.454Z,37.20
2023-05-16T01:15:33.454Z,28.70
2023-05-16T01:16:33.474Z,30.90
2023-05-16T01:17:33.438Z,36.00
2023-05-16T01:18:33.425Z,25.70
2023-05-16T01:19:33.405Z,25.40
2023-05-16T01:20:33.377Z,28.70
2023-05-16T01:21:33.344Z,29.80
2023-05-16T01:22:33.388Z,34.90
2023-05-16T01:23:33.346Z,28.10
2023-05-16T01:24:33.360Z,24.50
2023-05-16T01:25:33.317Z,26.60
2023-05-16T01:26:33.373Z,30.30
2023-05-16T01:27:33.300Z,28.50
2023-05-16T01:28:33.305Z,35.00
2023-05-16T01:29:33.292Z,32.20
2023-05-16T01:30:33.286Z,33.00
2023-05-16T01:31:33.278Z,33.50
2023-05-16T01:32:33.266Z,29.90
2023-05-16T01:33:33.217Z,36.80
2023-05-16T01:34:33.231Z,38.10
2023-05-16T01:35:33.236Z,36.20
2023-05-16T01:36:33.202Z,30.00
2023-05-16T01:37:33.203Z,37.10
2023-05-16T01:38:33.188Z,31.20
2023-05-16T01:39:33.160Z,23.80
2023-05-16T01:40:33.182Z,29.00
2023-05-16T01:41:33.166Z,34.10
2023-05-16T01:42:33.165Z,36.90
2023-05-16T01:43:33.110Z,34.70
2023-05-16T01:44:33.136Z,35.80
2023-05-16T01:45:33.110Z,35.10
2023-05-16T01:46:33.112Z,32.10
2023-05-16T01:47:33.122Z,31.70
2023-05-16T01:48:33.084Z,30.50
2023-05-16T01:49:33.057Z,30.20
2023-05-16T01:50:33.069Z,26.40
2023-05-16T01:51:33.031Z,33.30
2023-05-16T01:52:33.039Z,31.20
2023-05-16T01:53:33.031Z,34.90
2023-05-16T01:54:33.081Z,33.60
2023-05-16T01:55:33.014Z,33.30
2023-05-16T01:56:33.012Z,32.40
2023-05-16T01:57:32.969Z,30.20
2023-05-16T01:58:32.992Z,26.60
2023-05-16T01:59:32.975Z,25.50
2023-05-16T02:00:32.962Z,20.90
2023-05-16T02:01:33.033Z,20.50
2023-05-16T02:02:32.997Z,20.50
2023-05-16T02:03:32.970Z,23.00
2023-05-16T02:04:32.919Z,23.00
2023-05-16T02:05:32.942Z,23.80
2023-05-16T02:06:32.905Z,24.60
2023-05-16T02:07:32.893Z,27.80
2023-05-16T02:08:32.871Z,26.80
2023-05-16T02:09:32.865Z,27.10
2023-05-16T02:10:32.870Z,26.50
2023-05-16T02:11:32.864Z,29.10
2023-05-16T02:12:32.835Z,28.70
2023-05-16T02:13:32.822Z,25.20
2023-05-16T02:14:32.813Z,21.40
2023-05-16T02:15:32.787Z,24.30
2023-05-16T02:16:32.834Z,21.00
2023-05-16T02:17:32.814Z,18.30
2023-05-16T02:18:32.780Z,15.70
2023-05-16T02:19:32.755Z,11.40
2023-05-16T02:20:32.751Z,13.00
2023-05-16T02:21:32.718Z,11.30
2023-05-16T02:22:32.741Z,12.10
2023-05-16T02:23:32.725Z,11.60
2023-05-16T02:24:32.758Z,12.40
2023-05-16T02:25:32.701Z,12.70
2023-05-16T02:26:32.686Z,13.40
2023-05-16T02:27:32.671Z,12.70
2023-05-16T02:28:32.666Z,14.40
2023-05-16T02:29:32.802Z,14.90
2023-05-16T02:30:32.664Z,14.10
2023-05-16T02:31:32.823Z,13.70
2023-05-16T02:32:32.660Z,15.20
2023-05-16T02:33:32.587Z,14.60
2023-05-16T02:34:32.603Z,15.10
2023-05-16T02:35:32.595Z,14.40
2023-05-16T02:36:32.607Z,17.50
2023-05-16T02:37:32.548Z,15.10
2023-05-16T02:38:32.566Z,15.90
2023-05-16T02:39:32.524Z,14.90
2023-05-16T02:40:32.549Z,16.50
2023-05-16T02:41:32.535Z,17.90
2023-05-16T02:42:32.567Z,17.50
2023-05-16T02:43:32.483Z,17.60
2023-05-16T02:44:32.494Z,16.10
2023-05-16T02:45:32.466Z,17.80
2023-05-16T02:46:32.506Z,20.30
2023-05-16T02:47:32.492Z,17.40
2023-05-16T02:48:32.453Z,18.00
2023-05-16T02:49:32.420Z,20.00
2023-05-16T02:50:32.443Z,18.30
2023-05-16T02:51:32.399Z,18.70
2023-05-16T02:52:32.412Z,18.10
2023-05-16T02:53:32.397Z,18.70
2023-05-16T02:54:32.392Z,20.30
2023-05-16T02:55:32.368Z,18.30
2023-05-16T02:56:32.374Z,19.80
2023-05-16T02:57:32.332Z,20.00
2023-05-16T02:58:32.347Z,18.30
2023-05-16T02:59:32.331Z,19.60
2023-05-16T03:00:32.337Z,18.70
2023-05-16T03:01:32.321Z,18.70
2023-05-16T03:02:32.348Z,19.30
2023-05-16T03:03:32.346Z,18.80
2023-05-16T03:04:32.256Z,20.70
2023-05-16T03:05:32.621Z,18.70
2023-05-16T03:06:32.248Z,20.60
2023-05-16T03:07:32.249Z,21.30
2023-05-16T03:08:32.225Z,19.70
2023-05-16T03:09:32.232Z,28.40
2023-05-16T03:10:32.200Z,20.80
2023-05-16T03:11:32.224Z,20.00
2023-05-16T03:12:32.177Z,18.30
2023-05-16T03:13:32.194Z,17.70
2023-05-16T03:14:32.157Z,20.00
2023-05-16T03:15:32.169Z,20.20
2023-05-16T03:16:32.144Z,21.30
2023-05-16T03:17:32.289Z,20.80
2023-05-16T03:18:32.179Z,19.00
2023-05-16T03:19:32.124Z,21.00
2023-05-16T03:20:32.098Z,20.20
2023-05-16T03:21:32.116Z,21.20
2023-05-16T03:22:32.082Z,19.80
2023-05-16T03:23:32.106Z,22.60
2023-05-16T03:24:32.132Z,21.40
2023-05-16T03:25:32.065Z,19.20
2023-05-16T03:26:32.027Z,21.30
2023-05-16T03:27:32.047Z,22.30
2023-05-16T03:28:32.016Z,21.70
2023-05-16T03:29:32.047Z,20.60
2023-05-16T03:30:31.996Z,22.90
2023-05-16T03:31:32.052Z,22.30
2023-05-16T03:32:32.039Z,22.80
2023-05-16T03:33:31.995Z,21.10
2023-05-16T03:34:31.941Z,20.80
2023-05-16T03:35:31.999Z,26.30
2023-05-16T03:36:31.935Z,21.90
2023-05-16T03:37:31.943Z,23.20
2023-05-16T03:38:31.903Z,21.50
2023-05-16T03:39:31.932Z,21.30
2023-05-16T03:40:31.883Z,21.90
2023-05-16T03:41:31.918Z,22.80
2023-05-16T03:42:31.875Z,24.70
2023-05-16T03:43:31.875Z,21.00
2023-05-16T03:44:31.843Z,28.50
2023-05-16T03:45:31.905Z,27.60
2023-05-16T03:46:31.892Z,23.90
2023-05-16T03:47:32.014Z,23.20
2023-05-16T03:48:31.819Z,23.30
2023-05-16T03:49:31.815Z,21.40
2023-05-16T03:50:31.785Z,22.40
2023-05-16T03:51:31.809Z,23.70
2023-05-16T03:52:31.806Z,24.80
2023-05-16T03:53:31.796Z,24.90
2023-05-16T03:54:31.773Z,24.80
2023-05-16T03:55:31.765Z,26.30
2023-05-16T03:56:31.732Z,25.30
2023-05-16T03:57:31.727Z,26.40
2023-05-16T03:58:31.759Z,25.90
2023-05-16T03:59:31.739Z,24.70
2023-05-16T04:00:31.676Z,23.70
2023-05-16T04:01:31.705Z,25.80
2023-05-16T04:02:31.754Z,25.50
2023-05-16T04:03:31.688Z,22.90
2023-05-16T04:04:31.644Z,27.10
2023-05-16T04:05:31.758Z,23.70
2023-05-16T04:06:31.604Z,25.10
2023-05-16T04:07:31.622Z,25.00
2023-05-16T04:08:31.592Z,25.40
2023-05-16T04:09:31.608Z,23.50
2023-05-16T04:10:31.569Z,24.30
2023-05-16T04:11:31.618Z,24.60
2023-05-16T04:12:31.556Z,24.40
2023-05-16T04:13:31.626Z,24.60
2023-05-16T04:14:31.566Z,24.60
2023-05-16T04:15:31.551Z,23.20
2023-05-16T04:16:31.554Z,23.60
2023-05-16T04:17:31.662Z,22.70
2023-05-16T04:18:31.547Z,23.90
2023-05-16T04:19:31.506Z,23.00
2023-05-16T04:20:32.963Z,23.60
2023-05-16T04:21:31.482Z,23.90
2023-05-16T04:22:31.448Z,24.10
2023-05-16T04:23:31.492Z,25.40
2023-05-16T04:24:31.426Z,25.10
2023-05-16T04:25:31.435Z,30.70
2023-05-16T04:26:31.410Z,23.80
2023-05-16T04:27:31.430Z,25.20
2023-05-16T04:28:31.387Z,25.90
2023-05-16T04:29:31.432Z,25.00
2023-05-16T04:30:31.558Z,23.40
2023-05-16T04:31:31.414Z,20.80
2023-05-16T04:32:31.360Z,21.20
2023-05-16T04:33:31.353Z,21.30
2023-05-16T04:34:31.329Z,20.90
2023-05-16T04:35:31.361Z,21.80
2023-05-16T04:36:31.315Z,22.30
2023-05-16T04:37:31.318Z,21.90
2023-05-16T04:38:31.282Z,24.70
2023-05-16T04:39:31.310Z,22.30
2023-05-16T04:40:31.279Z,20.30
2023-05-16T04:41:31.318Z,21.80
2023-05-16T04:42:31.258Z,17.30
2023-05-16T04:43:31.252Z,18.80
2023-05-16T04:44:31.214Z,21.70
2023-05-16T04:45:31.227Z,20.40
2023-05-16T04:46:31.275Z,20.00
2023-05-16T04:47:31.253Z,21.00
2023-05-16T04:48:31.200Z,20.30
2023-05-16T04:49:31.176Z,19.80
2023-05-16T04:50:31.185Z,17.10
2023-05-16T04:51:31.176Z,18.90
2023-05-16T04:52:31.168Z,21.60
2023-05-16T04:53:31.145Z,20.40
2023-05-16T04:54:31.143Z,19.70
2023-05-16T04:55:31.277Z,18.60
2023-05-16T04:56:31.114Z,19.80
2023-05-16T04:57:31.102Z,20.10
2023-05-16T04:58:31.101Z,20.70
2023-05-16T04:59:31.102Z,19.30
2023-05-16T05:00:31.074Z,21.90
2023-05-16T05:01:31.086Z,18.80
2023-05-16T05:02:31.109Z,18.90
2023-05-16T05:03:31.017Z,18.50
2023-05-16T05:04:31.069Z,21.70
2023-05-16T05:05:31.387Z,21.70
2023-05-16T05:06:31.013Z,18.50
2023-05-16T05:07:30.986Z,17.40
2023-05-16T05:08:30.996Z,17.50
2023-05-16T05:09:30.966Z,17.40
2023-05-16T05:10:30.974Z,19.20
2023-05-16T05:11:30.967Z,18.00
2023-05-16T05:12:30.953Z,16.20
2023-05-16T05:13:30.952Z,17.40
2023-05-16T05:14:30.937Z,18.60
2023-05-16T05:15:30.902Z,18.90
2023-05-16T05:16:30.900Z,16.90
2023-05-16T05:17:30.979Z,16.40
2023-05-16T05:18:30.936Z,16.00
2023-05-16T05:19:30.875Z,16.00
2023-05-16T05:20:30.866Z,15.50
2023-05-16T05:21:30.830Z,16.30
2023-05-16T05:22:30.845Z,16.40
2023-05-16T05:23:30.826Z,17.00
2023-05-16T05:24:30.839Z,17.40
2023-05-16T05:25:30.830Z,17.00
2023-05-16T05:26:30.811Z,17.10
2023-05-16T05:27:30.766Z,16.90
2023-05-16T05:28:30.779Z,16.30
2023-05-16T05:29:30.773Z,14.20
2023-05-16T05:30:30.767Z,15.60
2023-05-16T05:31:30.775Z,15.70
2023-05-16T05:32:30.770Z,15.20
2023-05-16T05:33:30.721Z,16.30
2023-05-16T05:34:30.722Z,14.50
2023-05-16T05:35:30.820Z,15.20
2023-05-16T05:36:30.710Z,16.30
2023-05-16T05:37:30.682Z,16.00
2023-05-16T05:38:30.684Z,15.30
2023-05-16T05:39:30.647Z,13.70
2023-05-16T05:40:30.667Z,14.80
2023-05-16T05:41:30.652Z,14.70
2023-05-16T05:42:30.634Z,14.20
2023-05-16T05:43:30.601Z,13.90
2023-05-16T05:44:30.610Z,12.90
2023-05-16T05:45:30.725Z,13.50
2023-05-16T05:46:30.644Z,13.70
2023-05-16T05:47:30.626Z,13.00
2023-05-16T05:48:30.575Z,12.50
2023-05-16T05:49:30.533Z,12.40
2023-05-16T05:50:30.551Z,10.90
2023-05-16T05:51:30.519Z,10.10
2023-05-16T05:52:30.528Z,9.40
2023-05-16T05:53:30.567Z,9.00
2023-05-16T05:54:30.548Z,9.30
2023-05-16T05:55:30.476Z,8.10
2023-05-16T05:56:30.491Z,6.80
2023-05-16T05:57:30.457Z,7.10
2023-05-16T05:58:30.466Z,7.10
2023-05-16T05:59:30.458Z,7.90
2023-05-16T06:00:30.484Z,7.00
2023-05-16T06:01:30.408Z,6.20
2023-05-16T06:02:30.488Z,6.60
2023-05-16T06:03:30.453Z,6.60
2023-05-16T06:04:30.448Z,6.40
2023-05-16T06:05:30.674Z,6.10
2023-05-16T06:06:30.446Z,5.70
2023-05-16T06:07:30.374Z,5.80
2023-05-16T06:08:30.432Z,5.50
2023-05-16T06:09:30.706Z,7.00
2023-05-16T06:10:30.331Z,6.30
2023-05-16T06:11:30.405Z,6.30
2023-05-16T06:12:30.355Z,6.60
2023-05-16T06:13:30.284Z,5.80
2023-05-16T06:14:30.309Z,6.00
2023-05-16T06:15:30.377Z,6.20
2023-05-16T06:16:30.343Z,5.90
2023-05-16T06:17:30.537Z,5.60
2023-05-16T06:18:30.311Z,5.40
2023-05-16T06:19:30.253Z,5.90
2023-05-16T06:20:30.385Z,5.10
2023-05-16T06:21:30.206Z,5.30
2023-05-16T06:22:30.314Z,5.20
2023-05-16T06:23:30.210Z,5.10
2023-05-16T06:24:30.186Z,4.50
2023-05-16T06:25:30.264Z,4.20
2023-05-16T06:26:30.200Z,4.40
2023-05-16T06:27:30.143Z,4.70
2023-05-16T06:28:30.161Z,4.80
2023-05-16T06:29:30.144Z,4.40
2023-05-16T06:30:30.129Z,5.00
2023-05-16T06:31:30.137Z,4.70
2023-05-16T06:32:30.136Z,4.20
2023-05-16T06:33:30.092Z,4.30
2023-05-16T06:34:30.117Z,4.60
2023-05-16T06:35:30.175Z,4.30
2023-05-16T06:36:30.065Z,4.30
2023-05-16T06:37:30.042Z,4.90
2023-05-16T06:38:30.052Z,4.50
2023-05-16T06:39:30.035Z,5.10
2023-05-16T06:40:30.044Z,4.20
2023-05-16T06:41:30.067Z,4.40
2023-05-16T06:42:30.034Z,4.30
2023-05-16T06:43:29.970Z,4.80
2023-05-16T06:44:29.988Z,4.90
2023-05-16T06:45:30.131Z,4.50
2023-05-16T06:46:30.029Z,4.40
2023-05-16T06:47:30.000Z,3.70
2023-05-16T06:48:30.216Z,4.30
2023-05-16T06:49:29.901Z,4.30
2023-05-16T06:50:29.929Z,4.10
2023-05-16T06:51:29.909Z,3.90
2023-05-16T06:52:29.918Z,3.80
2023-05-16T06:53:29.885Z,4.10
2023-05-16T06:54:29.888Z,4.10
2023-05-16T06:55:30.104Z,3.80
2023-05-16T06:56:29.858Z,3.70
2023-05-16T06:57:29.822Z,3.80
2023-05-16T06:58:29.834Z,4.10
2023-05-16T06:59:29.849Z,3.70
2023-05-16T07:00:29.836Z,3.40
2023-05-16T07:01:29.807Z,4.00
2023-05-16T07:02:29.902Z,3.80
2023-05-16T07:03:29.924Z,4.00
2023-05-16T07:04:29.779Z,4.00
2023-05-16T07:05:29.900Z,3.60
2023-05-16T07:06:29.762Z,4.00
2023-05-16T07:07:29.718Z,3.50
2023-05-16T07:08:29.749Z,3.70
2023-05-16T07:09:29.698Z,4.00
2023-05-16T07:10:29.763Z,4.20
2023-05-16T07:11:29.710Z,3.50
2023-05-16T07:12:29.691Z,3.40
2023-05-16T07:13:29.734Z,3.10
2023-05-16T07:14:29.746Z,3.50
2023-05-16T07:15:29.923Z,3.10
2023-05-16T07:16:29.655Z,3.20
2023-05-16T07:17:29.658Z,3.40
2023-05-16T07:18:29.692Z,2.90
2023-05-16T07:19:29.627Z,2.70
2023-05-16T07:20:29.616Z,3.10
2023-05-16T07:21:29.655Z,2.80
2023-05-16T07:22:29.621Z,3.30
2023-05-16T07:23:29.584Z,2.70
2023-05-16T07:24:29.558Z,2.70
2023-05-16T07:25:29.814Z,3.00
2023-05-16T07:26:29.611Z,2.50
2023-05-16T07:27:29.571Z,2.80
2023-05-16T07:28:29.560Z,2.80
2023-05-16T07:29:29.577Z,2.70
2023-05-16T07:30:29.530Z,2.80
2023-05-16T07:31:29.508Z,2.80
2023-05-16T07:32:29.601Z,2.80
2023-05-16T07:33:29.479Z,2.50
2023-05-16T07:34:29.536Z,2.80
2023-05-16T07:35:29.610Z,2.50
2023-05-16T07:36:29.463Z,2.50
2023-05-16T07:37:31.161Z,2.20
2023-05-16T07:38:29.414Z,2.60
2023-05-16T07:39:29.392Z,2.30
2023-05-16T07:40:29.413Z,2.20
2023-05-16T07:41:29.379Z,2.50
2023-05-16T07:42:29.390Z,2.40
2023-05-16T07:43:30.380Z,2.40
2023-05-16T07:44:29.354Z,2.30
2023-05-16T07:45:29.633Z,2.40
2023-05-16T07:46:29.385Z,2.30
2023-05-16T07:47:29.414Z,2.30
2023-05-16T07:48:29.313Z,2.40
2023-05-16T07:49:29.278Z,2.40
2023-05-16T07:50:29.304Z,2.50
2023-05-16T07:51:29.246Z,2.50
2023-05-16T07:52:29.278Z,2.60
2023-05-16T07:53:29.493Z,2.90
2023-05-16T07:54:29.275Z,3.20
2023-05-16T07:55:29.338Z,2.60
2023-05-16T07:56:29.221Z,2.40
2023-05-16T07:57:29.182Z,2.70
2023-05-16T07:58:29.201Z,2.40
2023-05-16T07:59:29.277Z,2.40
2023-05-16T08:00:29.188Z,2.60
2023-05-16T08:01:29.144Z,2.30
2023-05-16T08:02:29.225Z,2.60
2023-05-16T08:03:29.233Z,2.40
2023-05-16T08:04:29.129Z,2.60
2023-05-16T08:05:29.435Z,2.40
2023-05-16T08:06:29.128Z,2.20
2023-05-16T08:07:29.083Z,2.20
2023-05-16T08:08:29.098Z,2.30
2023-05-16T08:09:29.076Z,2.10
2023-05-16T08:10:29.097Z,2.50
2023-05-16T08:11:29.072Z,2.40
2023-05-16T08:12:29.087Z,2.80
2023-05-16T08:13:29.023Z,2.20
2023-05-16T08:14:29.033Z,2.50
2023-05-16T08:15:29.247Z,2.30
2023-05-16T08:16:29.101Z,2.50
2023-05-16T08:17:29.058Z,2.30
2023-05-16T08:18:28.988Z,2.40
2023-05-16T08:19:29.016Z,2.10
2023-05-16T08:20:29.009Z,2.40
2023-05-16T08:21:28.925Z,2.20
2023-05-16T08:22:28.942Z,2.30
2023-05-16T08:23:28.928Z,2.50
2023-05-16T08:24:28.948Z,2.10
2023-05-16T08:25:29.142Z,2.60
2023-05-16T08:26:28.919Z,2.20
2023-05-16T08:27:29.003Z,2.20
2023-05-16T08:28:28.877Z,2.30
2023-05-16T08:29:28.864Z,2.30
2023-05-16T08:30:28.863Z,2.10
2023-05-16T08:31:29.008Z,2.20
2023-05-16T08:32:29.836Z,2.30
2023-05-16T08:33:28.817Z,2.00
2023-05-16T08:34:28.829Z,2.00
2023-05-16T08:35:28.996Z,2.10
2023-05-16T08:36:28.793Z,2.30
2023-05-16T08:37:28.764Z,2.00
2023-05-16T08:38:28.795Z,2.20
2023-05-16T08:39:28.752Z,2.40
2023-05-16T08:40:28.755Z,2.30
2023-05-16T08:41:28.750Z,1.90
2023-05-16T08:42:28.727Z,2.00
2023-05-16T08:43:28.832Z,2.20
2023-05-16T08:44:28.710Z,2.10
2023-05-16T08:45:28.900Z,1.90
2023-05-16T08:46:28.783Z,1.80
2023-05-16T08:47:28.717Z,1.80
2023-05-16T08:48:28.717Z,1.90
2023-05-16T08:49:28.675Z,1.80
2023-05-16T08:50:28.642Z,2.00
2023-05-16T08:51:28.614Z,1.80
2023-05-16T08:52:28.629Z,1.90
2023-05-16T08:53:28.610Z,1.90
2023-05-16T08:54:28.660Z,1.80
2023-05-16T08:55:28.741Z,1.80
2023-05-16T08:56:29.278Z,1.50
2023-05-16T08:57:28.567Z,2.00
2023-05-16T08:58:28.564Z,1.70
2023-05-16T08:59:28.574Z,1.90
2023-05-16T09:00:28.915Z,1.60
2023-05-16T09:01:28.584Z,1.90
2023-05-16T09:02:28.581Z,1.80
2023-05-16T09:03:28.604Z,1.70
2023-05-16T09:04:28.544Z,2.20
2023-05-16T09:05:28.948Z,1.90
2023-05-16T09:06:28.491Z,1.60
2023-05-16T09:07:28.467Z,1.80
2023-05-16T09:08:28.442Z,2.00
2023-05-16T09:09:28.444Z,1.90
2023-05-16T09:10:28.419Z,1.70
2023-05-16T09:11:28.451Z,1.90
2023-05-16T09:12:28.396Z,1.70
2023-05-16T09:13:28.413Z,1.60
2023-05-16T09:14:28.374Z,1.70
2023-05-16T09:15:28.681Z,1.90
2023-05-16T09:16:28.426Z,1.70
2023-05-16T09:17:38.783Z,1.90
2023-05-16T09:18:28.343Z,1.90
2023-05-16T09:19:28.395Z,1.70
2023-05-16T09:20:28.321Z,1.70
2023-05-16T09:21:28.333Z,1.90
2023-05-16T09:22:28.315Z,1.80
2023-05-16T09:23:28.337Z,1.60
2023-05-16T09:24:28.261Z,1.90
2023-05-16T09:25:30.779Z,2.60
2023-05-16T09:26:28.336Z,2.20
2023-05-16T09:27:28.319Z,1.70
2023-05-16T09:28:28.214Z,1.60
2023-05-16T09:29:28.268Z,1.70
2023-05-16T09:30:28.212Z,1.90
2023-05-16T09:31:28.258Z,1.70
2023-05-16T09:32:28.192Z,1.60
2023-05-16T09:33:28.194Z,1.80
2023-05-16T09:34:28.171Z,2.70
2023-05-16T09:36:28.140Z,1.60
2023-05-16T09:37:28.223Z,1.60
2023-05-16T09:38:28.113Z,1.60
2023-05-16T09:39:28.165Z,1.70
2023-05-16T09:40:28.140Z,1.50
2023-05-16T09:41:28.121Z,1.70
2023-05-16T09:42:28.077Z,1.70
2023-05-16T09:43:28.092Z,1.70
2023-05-16T09:44:28.056Z,1.60
2023-05-16T09:45:28.304Z,1.50
2023-05-16T09:46:28.952Z,1.60
2023-05-16T09:47:28.154Z,1.90
2023-05-16T09:48:28.010Z,1.60
2023-05-16T09:49:28.023Z,1.60
2023-05-16T09:50:28.020Z,1.80
2023-05-16T09:51:28.004Z,2.10
2023-05-16T09:52:27.978Z,1.80
2023-05-16T09:53:28.004Z,2.10
2023-05-16T09:54:27.956Z,2.10
2023-05-16T09:55:28.166Z,1.90
2023-05-16T09:56:28.007Z,2.20
2023-05-16T09:57:27.938Z,1.90
2023-05-16T09:58:27.940Z,1.70
2023-05-16T09:59:27.965Z,1.90
2023-05-16T10:00:27.883Z,1.80
2023-05-16T10:01:27.912Z,1.50
2023-05-16T10:02:27.965Z,1.90
2023-05-16T10:03:27.940Z,1.50
2023-05-16T10:04:27.926Z,1.70
2023-05-16T10:05:28.205Z,1.60
2023-05-16T10:06:27.886Z,1.70
2023-05-16T10:07:27.826Z,2.20
2023-05-16T10:08:27.814Z,2.20
2023-05-16T10:09:27.826Z,1.70
2023-05-16T10:10:27.772Z,1.50
2023-05-16T10:11:27.812Z,1.60
2023-05-16T10:12:27.750Z,1.60
2023-05-16T10:13:27.746Z,1.60
2023-05-16T10:14:27.744Z,1.60
2023-05-16T10:15:28.035Z,1.50
2023-05-16T10:16:27.738Z,2.40
2023-05-16T10:17:27.815Z,1.50
2023-05-16T10:18:27.698Z,1.60
2023-05-16T10:19:27.777Z,1.60
2023-05-16T10:20:27.669Z,1.80
2023-05-16T10:21:27.691Z,1.90
2023-05-16T10:22:27.677Z,1.80
2023-05-16T10:23:27.692Z,2.00
2023-05-16T10:24:27.652Z,1.70
2023-05-16T10:25:27.990Z,1.90
2023-05-16T10:26:27.643Z,1.70
2023-05-16T10:27:27.619Z,1.80
2023-05-16T10:28:27.618Z,1.90
2023-05-16T10:29:27.646Z,1.90
2023-05-16T10:30:27.564Z,1.70
2023-05-16T10:31:27.641Z,1.50
2023-05-16T10:32:27.656Z,1.40
2023-05-16T10:33:27.630Z,1.50
2023-05-16T10:34:27.531Z,1.80
2023-05-16T10:35:27.876Z,1.60
2023-05-16T10:36:27.525Z,1.80
2023-05-16T10:37:27.525Z,1.70
2023-05-16T10:38:27.478Z,1.60
2023-05-16T10:39:27.571Z,1.60
2023-05-16T10:40:27.498Z,1.70
2023-05-16T10:41:27.481Z,1.80
2023-05-16T10:42:27.435Z,1.80
2023-05-16T10:43:27.483Z,1.40
2023-05-16T10:44:27.439Z,1.40
2023-05-16T10:45:27.668Z,1.50
2023-05-16T10:46:27.459Z,1.40
2023-05-16T10:47:27.417Z,1.60
2023-05-16T10:48:27.432Z,1.40
2023-05-16T10:49:27.396Z,1.20
2023-05-16T10:50:27.374Z,1.70
2023-05-16T10:51:27.374Z,1.40
2023-05-16T10:52:27.328Z,1.40
2023-05-16T10:53:27.403Z,1.30
2023-05-16T10:54:27.308Z,1.50
2023-05-16T10:55:27.524Z,1.40
2023-05-16T10:56:27.316Z,1.50
2023-05-16T10:57:27.341Z,1.40
2023-05-16T10:58:27.261Z,1.40
2023-05-16T10:59:27.303Z,1.50
2023-05-16T11:00:27.239Z,1.50
2023-05-16T11:01:27.316Z,1.50
2023-05-16T11:02:27.344Z,1.30
2023-05-16T11:03:27.309Z,1.50
2023-05-16T11:04:27.202Z,1.70
2023-05-16T11:05:27.456Z,1.70
2023-05-16T11:06:27.202Z,1.70
2023-05-16T11:07:27.199Z,1.90
2023-05-16T11:08:27.179Z,1.50
2023-05-16T11:09:27.221Z,1.60
2023-05-16T11:10:28.187Z,1.70
2023-05-16T11:11:27.251Z,1.40
2023-05-16T11:12:27.144Z,1.20
2023-05-16T11:13:27.141Z,1.40
2023-05-16T11:14:27.133Z,1.40
2023-05-16T11:15:27.373Z,1.40
2023-05-16T11:16:27.108Z,1.40
2023-05-16T11:17:27.281Z,1.30
2023-05-16T11:18:27.074Z,1.30
2023-05-16T11:19:27.064Z,1.90
2023-05-16T11:20:27.064Z,1.40
2023-05-16T11:21:27.061Z,1.30
2023-05-16T11:22:27.040Z,1.20
2023-05-16T11:23:27.056Z,1.30
2023-05-16T11:24:27.053Z,1.30
2023-05-16T11:25:27.192Z,1.30
2023-05-16T11:26:26.974Z,1.30
2023-05-16T11:27:27.056Z,1.40
2023-05-16T11:28:27.098Z,1.30
2023-05-16T11:29:26.972Z,1.50
2023-05-16T11:30:26.954Z,1.40
2023-05-16T11:31:26.999Z,1.20
2023-05-16T11:32:26.952Z,1.50
2023-05-16T11:33:26.941Z,1.30
2023-05-16T11:34:26.896Z,1.30
2023-05-16T11:35:27.134Z,1.50
2023-05-16T11:36:26.893Z,1.30
2023-05-16T11:37:26.909Z,1.40
2023-05-16T11:38:26.857Z,1.40
2023-05-16T11:39:26.885Z,1.40
2023-05-16T11:40:26.840Z,1.30
2023-05-16T11:41:26.868Z,1.40
2023-05-16T11:42:26.811Z,1.40
2023-05-16T11:43:26.830Z,1.30
2023-05-16T11:44:26.889Z,1.40
2023-05-16T11:45:27.047Z,1.40
2023-05-16T11:46:26.890Z,1.80
2023-05-16T11:47:26.889Z,1.50
2023-05-16T11:48:35.763Z,1.50
2023-05-16T11:49:26.753Z,1.40
2023-05-16T11:50:26.735Z,1.40
2023-05-16T11:51:26.735Z,1.50
2023-05-16T11:52:26.736Z,5.00
2023-05-16T11:53:26.735Z,1.50
2023-05-16T11:54:26.672Z,1.40
2023-05-16T11:55:40.168Z,1.40
2023-05-16T11:56:26.674Z,1.40
2023-05-16T11:57:26.680Z,1.50
2023-05-16T11:58:26.647Z,1.70
2023-05-16T11:59:26.665Z,1.70
2023-05-16T12:00:26.646Z,1.20
2023-05-16T12:01:27.338Z,1.50
2023-05-16T12:02:26.671Z,1.40
2023-05-16T12:03:26.741Z,1.40
2023-05-16T12:04:26.765Z,1.40
2023-05-16T12:05:26.942Z,1.40
2023-05-16T12:06:26.546Z,1.40
2023-05-16T12:07:26.568Z,1.30
2023-05-16T12:08:26.570Z,1.50
2023-05-16T12:09:26.539Z,1.50
2023-05-16T12:10:26.812Z,1.40
2023-05-16T12:11:26.550Z,1.40
2023-05-16T12:12:26.493Z,1.40
2023-05-16T12:13:26.506Z,1.40
2023-05-16T12:14:26.461Z,1.50
2023-05-16T12:15:26.804Z,1.40
2023-05-16T12:16:27.346Z,1.50
2023-05-16T12:17:26.531Z,1.50
2023-05-16T12:18:26.425Z,1.50
2023-05-16T12:19:26.523Z,1.40
2023-05-16T12:20:26.469Z,1.40
2023-05-16T12:21:26.417Z,1.20
2023-05-16T12:22:26.391Z,1.40
2023-05-16T12:23:26.502Z,1.40
2023-05-16T12:24:26.979Z,1.50
2023-05-16T12:25:26.606Z,1.50
2023-05-16T12:26:26.355Z,1.40
2023-05-16T12:27:26.356Z,1.30
2023-05-16T12:28:26.321Z,1.30
2023-05-16T12:29:26.363Z,1.30
2023-05-16T12:30:26.534Z,1.30
2023-05-16T12:31:31.712Z,1.30
2023-05-16T12:32:26.341Z,1.30
2023-05-16T12:33:26.355Z,1.40
2023-05-16T12:34:26.481Z,1.30
2023-05-16T12:35:26.297Z,1.30
2023-05-16T12:36:26.246Z,1.10
2023-05-16T12:37:26.280Z,1.10
2023-05-16T12:38:26.227Z,1.30
2023-05-16T12:39:26.247Z,1.50
2023-05-16T12:40:26.403Z,1.30
2023-05-16T12:41:26.250Z,1.50
2023-05-16T12:42:26.166Z,1.50
2023-05-16T12:43:26.188Z,1.70
2023-05-16T12:44:26.146Z,1.50
2023-05-16T12:45:26.162Z,1.40
2023-05-16T12:46:26.174Z,1.30
2023-05-16T12:47:26.197Z,1.30
2023-05-16T12:48:26.111Z,1.40
2023-05-16T12:49:26.116Z,1.70
2023-05-16T12:50:26.202Z,1.70
2023-05-16T12:51:26.100Z,1.60
2023-05-16T12:52:26.070Z,1.20
2023-05-16T12:53:26.107Z,1.60
2023-05-16T12:54:26.073Z,1.50
2023-05-16T12:55:26.060Z,1.40
2023-05-16T12:56:26.018Z,1.20
2023-05-16T12:57:26.030Z,1.60
2023-05-16T12:58:26.025Z,1.30
2023-05-16T12:59:26.033Z,1.80
2023-05-16T13:00:26.038Z,1.30
2023-05-16T13:01:25.994Z,1.50
2023-05-16T13:02:26.049Z,1.60
2023-05-16T13:03:26.071Z,1.30
2023-05-16T13:04:25.993Z,1.30
2023-05-16T13:05:25.970Z,1.40
2023-05-16T13:06:25.912Z,1.40
2023-05-16T13:07:25.948Z,1.30
2023-05-16T13:08:25.894Z,1.70